Observation data for Pampa on 12/10/2018      Previous  Date       Current Mesonet Observations  Soil Data  Daily Summary Page  Observations in Plain Language
KPMS 100600Z 25006KT M00/M07 A3033 RMK A01 T10011069  RH  061%=      5-min Rain = 0
KPMS 100605Z 25006KT M00/M07 A3033 RMK A01 T10041069  RH  063%=      5-min Rain = 0
KPMS 100610Z 25006KT M00/M07 A3033 RMK A01 T10041068  RH  063%=      5-min Rain = 0
KPMS 100615Z 24005KT M00/M07 A3032 RMK A01 T10041068  RH  063%=      5-min Rain = 0
KPMS 100620Z 25005KT M00/M07 A3032 RMK A01 T10041069  RH  062%=      5-min Rain = 0
KPMS 100625Z 24005KT M01/M07 A3032 RMK A01 T10081071  RH  063%=      5-min Rain = 0
KPMS 100630Z 24005KT M01/M07 A3032 RMK A01 T10111071  RH  064%=      5-min Rain = 0
KPMS 100635Z 25006KT M01/M07 A3032 RMK A01 T10121070  RH  065%=      5-min Rain = 0
KPMS 100640Z 25006KT M01/M07 A3032 RMK A01 T10081069  RH  064%=      5-min Rain = 0
KPMS 100645Z 25005KT M00/M07 A3032 RMK A01 T10041069  RH  062%=      5-min Rain = 0
KPMS 100650Z 25005KT M00/M07 A3031 RMK A01 T10031070  RH  061%=      5-min Rain = 0
KPMS 100655Z 24005KT M00/M07 A3031 RMK A01 T10041071  RH  061%=      5-min Rain = 0
KPMS 100700Z 24006KT M00/M07 A3031 RMK A01 T10041071  RH  061%=      5-min Rain = 0
KPMS 100705Z 24006KT M01/M07 A3031 RMK A01 T10051071  RH  062%=      5-min Rain = 0
KPMS 100710Z 25006KT M01/M07 A3031 RMK A01 T10071070  RH  063%=      5-min Rain = 0
KPMS 100715Z 24006KT M01/M07 A3031 RMK A01 T10061070  RH  063%=      5-min Rain = 0
KPMS 100720Z 24006KT M01/M07 A303 RMK A01 T10071070  RH  063%=      5-min Rain = 0
KPMS 100725Z 24006KT M01/M07 A303 RMK A01 T10071068  RH  064%=      5-min Rain = 0
KPMS 100730Z 24006KT M01/M07 A303 RMK A01 T10071068  RH  064%=      5-min Rain = 0
KPMS 100735Z 25007KT M01/M07 A303 RMK A01 T10071067  RH  065%=      5-min Rain = 0
KPMS 100740Z 25007KT M01/M07 A303 RMK A01 T10051066  RH  064%=      5-min Rain = 0
KPMS 100745Z 25007KT 00/M06 A303 RMK A01 T00021063  RH  062%=      5-min Rain = 0
KPMS 100750Z 25006KT 01/M06 A303 RMK A01 T00061063  RH  060%=      5-min Rain = 0
KPMS 100755Z 26005KT 01/M06 A303 RMK A01 T00071064  RH  060%=      5-min Rain = 0
KPMS 100800Z 26005KT 00/M07 A303 RMK A01 T00031065  RH  061%=      5-min Rain = 0
KPMS 100805Z 26006KT 00/M07 A303 RMK A01 T00011065  RH  062%=      5-min Rain = 0
KPMS 100810Z 25006KT 01/M06 A303 RMK A01 T00051064  RH  060%=      5-min Rain = 0
KPMS 100815Z 26005KT 01/M07 A303 RMK A01 T00051065  RH  060%=      5-min Rain = 0
KPMS 100820Z 26006KT 00/M06 A303 RMK A01 T00031064  RH  061%=      5-min Rain = 0
KPMS 100825Z 26006KT 00/M06 A303 RMK A01 T00031064  RH  061%=      5-min Rain = 0
KPMS 100830Z 27005KT 00/M07 A303 RMK A01 T00011065  RH  062%=      5-min Rain = 0
KPMS 100835Z 27006KT M00/M07 A303 RMK A01 T10041066  RH  064%=      5-min Rain = 0
KPMS 100840Z 26006KT M01/M07 A303 RMK A01 T10081065  RH  066%=      5-min Rain = 0
KPMS 100845Z 27006KT M01/M07 A303 RMK A01 T10101067  RH  066%=      5-min Rain = 0
KPMS 100850Z 27006KT M01/M07 A303 RMK A01 T10141068  RH  067%=      5-min Rain = 0
KPMS 100855Z 27006KT M02/M07 A303 RMK A01 T10161066  RH  070%=      5-min Rain = 0
KPMS 100900Z 26007KT M01/M07 A303 RMK A01 T10131065  RH  068%=      5-min Rain = 0
KPMS 100905Z 27007KT M01/M07 A303 RMK A01 T10121065  RH  068%=      5-min Rain = 0
KPMS 100910Z 26007KT M01/M07 A303 RMK A01 T10131065  RH  069%=      5-min Rain = 0
KPMS 100915Z 27007KT M01/M06 A303 RMK A01 T10131064  RH  069%=      5-min Rain = 0
KPMS 100920Z 27007KT M02/M06 A303 RMK A01 T10151064  RH  070%=      5-min Rain = 0
KPMS 100925Z 27007KT M02/M06 A303 RMK A01 T10171064  RH  071%=      5-min Rain = 0
KPMS 100930Z 27006KT M02/M06 A303 RMK A01 T10181064  RH  072%=      5-min Rain = 0
KPMS 100935Z 28006KT M02/M06 A303 RMK A01 T10181064  RH  072%=      5-min Rain = 0
KPMS 100940Z 28006KT M02/M07 A303 RMK A01 T10181065  RH  071%=      5-min Rain = 0
KPMS 100945Z 28007KT M02/M07 A303 RMK A01 T10191066  RH  071%=      5-min Rain = 0
KPMS 100950Z 28007KT M02/M07 A303 RMK A01 T10191065  RH  072%=      5-min Rain = 0
KPMS 100955Z 29007KT M02/M06 A303 RMK A01 T10181063  RH  072%=      5-min Rain = 0
KPMS 101000Z 29008KT M02/M06 A303 RMK A01 T10161061  RH  072%=      5-min Rain = 0
KPMS 101005Z 29008KT M01/M06 A303 RMK A01 T10141060  RH  071%=      5-min Rain = 0
KPMS 101010Z 30009KT M01/M06 A303 RMK A01 T10141059  RH  072%=      5-min Rain = 0
KPMS 101015Z 31009KT M02/M06 A303 RMK A01 T10161059  RH  073%=      5-min Rain = 0
KPMS 101020Z 31008KT M02/M06 A303 RMK A01 T10191061  RH  074%=      5-min Rain = 0
KPMS 101025Z 30008KT M02/M06 A303 RMK A01 T10221062  RH  075%=      5-min Rain = 0
KPMS 101030Z 30007KT M02/M06 A303 RMK A01 T10211061  RH  075%=      5-min Rain = 0
KPMS 101035Z 30007KT M02/M06 A303 RMK A01 T10201062  RH  074%=      5-min Rain = 0
KPMS 101040Z 31007KT M03/M07 A303 RMK A01 T10271065  RH  076%=      5-min Rain = 0
KPMS 101045Z 30007KT M03/M07 A303 RMK A01 T10311066  RH  078%=      5-min Rain = 0
KPMS 101050Z 31007KT M04/M07 A303 RMK A01 T10351069  RH  078%=      5-min Rain = 0
KPMS 101055Z 31006KT M04/M07 A3029 RMK A01 T10421073  RH  080%=      5-min Rain = 0
KPMS 101100Z 31006KT M05/M07 A3029 RMK A01 T10471074  RH  082%=      5-min Rain = 0
KPMS 101105Z 31006KT M04/M07 A3029 RMK A01 T10431069  RH  083%=      5-min Rain = 0
KPMS 101110Z 30007KT M04/M07 A3029 RMK A01 T10391067  RH  082%=      5-min Rain = 0
KPMS 101115Z 30007KT M04/M07 A303 RMK A01 T10351067  RH  080%=      5-min Rain = 0
KPMS 101120Z 31007KT M04/M07 A303 RMK A01 T10421074  RH  080%=      5-min Rain = 0
KPMS 101125Z 31007KT M05/M07 A303 RMK A01 T10451072  RH  082%=      5-min Rain = 0
KPMS 101130Z 31007KT M05/M07 A303 RMK A01 T10461071  RH  083%=      5-min Rain = 0
KPMS 101135Z 29007KT M04/M07 A303 RMK A01 T10431068  RH  084%=      5-min Rain = 0
KPMS 101140Z 30008KT M04/M07 A303 RMK A01 T10381067  RH  081%=      5-min Rain = 0
KPMS 101145Z 30007KT M03/M07 A303 RMK A01 T10341066  RH  080%=      5-min Rain = 0
KPMS 101150Z 30007KT M04/M07 A303 RMK A01 T10351067  RH  079%=      5-min Rain = 0
KPMS 101155Z 30007KT M04/M07 A303 RMK A01 T10351068  RH  079%=      5-min Rain = 0
KPMS 101200Z 30006KT M04/M07 A303 RMK A01 T10351068  RH  079%=      5-min Rain = 0
KPMS 101205Z 30007KT M04/M07 A303 RMK A01 T10371069  RH  079%=      5-min Rain = 0
KPMS 101210Z 29007KT M04/M07 A303 RMK A01 T10351068  RH  079%=      5-min Rain = 0
KPMS 101215Z 30007KT M03/M07 A303 RMK A01 T10341068  RH  078%=      5-min Rain = 0
KPMS 101220Z 31007KT M04/M07 A303 RMK A01 T10381070  RH  079%=      5-min Rain = 0
KPMS 101225Z 32006KT M04/M07 A3031 RMK A01 T10431073  RH  080%=      5-min Rain = 0
KPMS 101230Z 32007KT M05/M08 A3031 RMK A01 T10481075  RH  082%=      5-min Rain = 0
KPMS 101235Z 32007KT M05/M08 A3031 RMK A01 T10481075  RH  083%=      5-min Rain = 0
KPMS 101240Z 31007KT M05/M08 A3031 RMK A01 T10491075  RH  083%=      5-min Rain = 0
KPMS 101245Z 32007KT M05/M08 A3031 RMK A01 T10491075  RH  083%=      5-min Rain = 0
KPMS 101250Z 30007KT M05/M07 A3031 RMK A01 T10471073  RH  083%=      5-min Rain = 0
KPMS 101255Z 30007KT M04/M07 A3031 RMK A01 T10411070  RH  081%=      5-min Rain = 0
KPMS 101300Z 29007KT M04/M07 A3031 RMK A01 T10391070  RH  080%=      5-min Rain = 0
KPMS 101305Z 29007KT M04/M07 A3031 RMK A01 T10371070  RH  079%=      5-min Rain = 0
KPMS 101310Z 29007KT M04/M07 A3031 RMK A01 T10361071  RH  078%=      5-min Rain = 0
KPMS 101315Z 29007KT M04/M07 A3031 RMK A01 T10351072  RH  076%=      5-min Rain = 0
KPMS 101320Z 32006KT M05/M08 A3032 RMK A01 T10461079  RH  078%=      5-min Rain = 0
KPMS 101325Z 30007KT M05/M08 A3032 RMK A01 T10481076  RH  082%=      5-min Rain = 0
KPMS 101330Z 31007KT M05/M08 A3032 RMK A01 T10501079  RH  081%=      5-min Rain = 0
KPMS 101335Z 30008KT M05/M08 A3032 RMK A01 T10481075  RH  083%=      5-min Rain = 0
KPMS 101340Z 30007KT M04/M07 A3032 RMK A01 T10431074  RH  080%=      5-min Rain = 0
KPMS 101345Z 30006KT M04/M08 A3032 RMK A01 T10441075  RH  080%=      5-min Rain = 0
KPMS 101350Z 30007KT M04/M07 A3032 RMK A01 T10431073  RH  080%=      5-min Rain = 0
KPMS 101355Z 29007KT M04/M07 A3032 RMK A01 T10371071  RH  078%=      5-min Rain = 0
KPMS 101400Z 29008KT M03/M07 A3032 RMK A01 T10331070  RH  077%=      5-min Rain = 0
KPMS 101405Z 29008KT M03/M07 A3032 RMK A01 T10301067  RH  076%=      5-min Rain = 0
KPMS 101410Z 29008KT M03/M07 A3032 RMK A01 T10271065  RH  076%=      5-min Rain = 0
KPMS 101415Z 29007KT M02/M06 A3032 RMK A01 T10241064  RH  075%=      5-min Rain = 0
KPMS 101420Z 29006KT M02/M06 A3032 RMK A01 T10221062  RH  075%=      5-min Rain = 0
KPMS 101425Z 29006KT M02/M06 A3033 RMK A01 T10191061  RH  074%=      5-min Rain = 0
KPMS 101430Z 30006KT M02/M06 A3033 RMK A01 T10171059  RH  073%=      5-min Rain = 0
KPMS 101435Z 30006KT M01/M06 A3033 RMK A01 T10141059  RH  072%=      5-min Rain = 0
KPMS 101440Z 30007KT M01/M06 A3033 RMK A01 T10111058  RH  071%=      5-min Rain = 0
KPMS 101445Z 30007KT M01/M06 A3033 RMK A01 T10081056  RH  071%=      5-min Rain = 0
KPMS 101450Z 30007KT M01/M06 A3033 RMK A01 T10061056  RH  070%=      5-min Rain = 0
KPMS 101455Z 29007KT M00/M06 A3033 RMK A01 T10041056  RH  068%=      5-min Rain = 0
KPMS 101500Z 29007KT M00/M06 A3033 RMK A01 T10021056  RH  068%=      5-min Rain = 0
KPMS 101505Z 29007KT 00/06 A3033 RMK A01 T00000-56  RH  067%=      5-min Rain = 0
KPMS 101510Z 30007KT 00/M05 A3033 RMK A01 T00031054  RH  066%=      5-min Rain = 0
KPMS 101515Z 30007KT 01/M05 A3033 RMK A01 T00061053  RH  066%=      5-min Rain = 0
KPMS 101520Z 31005KT 01/M05 A3034 RMK A01 T00081051  RH  065%=      5-min Rain = 0
KPMS 101525Z 30003KT 01/M05 A3034 RMK A01 T00111051  RH  064%=      5-min Rain = 0
KPMS 101530Z 31005KT 01/M05 A3034 RMK A01 T00131051  RH  063%=      5-min Rain = 0
KPMS 101535Z 31005KT 01/M05 A3034 RMK A01 T00141052  RH  062%=      5-min Rain = 0
KPMS 101540Z 30006KT 02/M05 A3034 RMK A01 T00161049  RH  063%=      5-min Rain = 0
KPMS 101545Z 30007KT 02/M05 A3034 RMK A01 T00191050  RH  061%=      5-min Rain = 0
KPMS 101550Z 30007KT 02/M05 A3034 RMK A01 T00211051  RH  060%=      5-min Rain = 0
KPMS 101555Z 31005KT 02/M05 A3034 RMK A01 T00241050  RH  059%=      5-min Rain = 0
KPMS 101600Z 31005KT 03/M05 A3034 RMK A01 T00271053  RH  056%=      5-min Rain = 0
KPMS 101605Z 31005KT 03/M05 A3034 RMK A01 T00291052  RH  056%=      5-min Rain = 0
KPMS 101610Z 30005KT 03/M05 A3034 RMK A01 T00321052  RH  055%=      5-min Rain = 0
KPMS 101615Z 30004KT 04/M05 A3034 RMK A01 T00351051  RH  054%=      5-min Rain = 0
KPMS 101620Z 31004KT 04/M05 A3034 RMK A01 T00391051  RH  053%=      5-min Rain = 0
KPMS 101625Z 31003KT 04/M05 A3034 RMK A01 T00411051  RH  051%=      5-min Rain = 0
KPMS 101630Z 28002KT 04/M05 A3034 RMK A01 T00441050  RH  051%=      5-min Rain = 0
KPMS 101635Z 28003KT 05/M05 A3034 RMK A01 T00491052  RH  049%=      5-min Rain = 0
KPMS 101640Z 26003KT 05/M05 A3034 RMK A01 T00501051  RH  048%=      5-min Rain = 0
KPMS 101645Z 26003KT 05/M05 A3034 RMK A01 T00541051  RH  047%=      5-min Rain = 0
KPMS 101650Z 29001KT 06/M05 A3034 RMK A01 T00561053  RH  046%=      5-min Rain = 0
KPMS 101655Z 34002KT 06/M06 A3034 RMK A01 T00611058  RH  043%=      5-min Rain = 0
KPMS 101700Z 31004KT 06/M06 A3034 RMK A01 T00631059  RH  042%=      5-min Rain = 0
KPMS 101705Z 33003KT 06/M06 A3034 RMK A01 T00641063  RH  040%=      5-min Rain = 0
KPMS 101710Z 32003KT 07/M06 A3034 RMK A01 T00661062  RH  040%=      5-min Rain = 0
KPMS 101715Z 33003KT 07/M06 A3034 RMK A01 T00681061  RH  040%=      5-min Rain = 0
KPMS 101720Z 34003KT 07/M06 A3034 RMK A01 T00711061  RH  039%=      5-min Rain = 0
KPMS 101725Z 33002KT 07/M06 A3033 RMK A01 T00741062  RH  038%=      5-min Rain = 0
KPMS 101730Z 33003KT 08/M07 A3033 RMK A01 T00761065  RH  037%=      5-min Rain = 0
KPMS 101735Z 01002KT 08/M06 A3033 RMK A01 T00771063  RH  037%=      5-min Rain = 0
KPMS 101740Z 02003KT 08/M06 A3033 RMK A01 T00811063  RH  036%=      5-min Rain = 0
KPMS 101745Z 36003KT 08/M07 A3032 RMK A01 T00831066  RH  035%=      5-min Rain = 0
KPMS 101750Z 32002KT 08/M06 A3032 RMK A01 T00811064  RH  036%=      5-min Rain = 0
KPMS 101755Z 04003KT 09/M08 A3032 RMK A01 T00851075  RH  032%=      5-min Rain = 0
KPMS 101800Z 01004KT 09/M08 A3031 RMK A01 T00881075  RH  031%=      5-min Rain = 0
KPMS 101805Z 34003KT 09/M07 A3031 RMK A01 T00891070  RH  032%=      5-min Rain = 0
KPMS 101810Z 35002KT 09/M08 A3031 RMK A01 T00891075  RH  031%=      5-min Rain = 0
KPMS 101815Z 07002KT 09/M08 A303 RMK A01 T00911080  RH  029%=      5-min Rain = 0
KPMS 101820Z 08002KT 09/M08 A303 RMK A01 T00931078  RH  030%=      5-min Rain = 0
KPMS 101825Z 18004KT 10/M07 A303 RMK A01 T00961070  RH  031%=      5-min Rain = 0
KPMS 101830Z 31003KT 10/M07 A303 RMK A01 T00951070  RH  031%=      5-min Rain = 0
KPMS 101835Z 32004KT 09/M07 A303 RMK A01 T00941071  RH  031%=      5-min Rain = 0
KPMS 101840Z 31003KT 09/M07 A3029 RMK A01 T00931073  RH  030%=      5-min Rain = 0
KPMS 101845Z 30004KT 10/M08 A3029 RMK A01 T00951075  RH  030%=      5-min Rain = 0
KPMS 101850Z 27002KT 10/M08 A3029 RMK A01 T00951076  RH  030%=      5-min Rain = 0
KPMS 101855Z 27001KT 10/M08 A3029 RMK A01 T00971076  RH  029%=      5-min Rain = 0
KPMS 101900Z 27004KT 10/M08 A3029 RMK A01 T00981076  RH  029%=      5-min Rain = 0
KPMS 101905Z 21001KT 10/M08 A3028 RMK A01 T00991076  RH  029%=      5-min Rain = 0
KPMS 101910Z 23002G7KT 10/M08 A3028 RMK A01 T01021075  RH  028%=      5-min Rain = 0
KPMS 101915Z 32006KT 10/M08 A3028 RMK A01 T01021076  RH  028%=      5-min Rain = 0
KPMS 101920Z 32003G8KT 10/M08 A3028 RMK A01 T01001077  RH  028%=      5-min Rain = 0
KPMS 101925Z 28002KT 10/M08 A3028 RMK A01 T01011077  RH  028%=      5-min Rain = 0
KPMS 101930Z 26003KT 10/M08 A3027 RMK A01 T01031075  RH  028%=      5-min Rain = 0
KPMS 101935Z 26002KT 11/M07 A3027 RMK A01 T01061074  RH  028%=      5-min Rain = 0
KPMS 101940Z 18002KT 11/M08 A3027 RMK A01 T01081076  RH  027%=      5-min Rain = 0
KPMS 101945Z 29003KT 11/M08 A3027 RMK A01 T01101075  RH  027%=      5-min Rain = 0
KPMS 101950Z 26004KT 11/M08 A3026 RMK A01 T01081075  RH  027%=      5-min Rain = 0
KPMS 101955Z 25002KT 11/M08 A3026 RMK A01 T01081077  RH  027%=      5-min Rain = 0
KPMS 102000Z 21003KT 11/M07 A3026 RMK A01 T01111074  RH  027%=      5-min Rain = 0
KPMS 102005Z 28002KT 11/M07 A3026 RMK A01 T01121074  RH  027%=      5-min Rain = 0
KPMS 102010Z 31001KT 11/M07 A3026 RMK A01 T01121074  RH  027%=      5-min Rain = 0
KPMS 102015Z 27002KT 12/M07 A3025 RMK A01 T01171072  RH  026%=      5-min Rain = 0
KPMS 102020Z 25001KT 12/M08 A3025 RMK A01 T01161075  RH  026%=      5-min Rain = 0
KPMS 102025Z 25001KT 12/M07 A3025 RMK A01 T01201073  RH  025%=      5-min Rain = 0
KPMS 102030Z 24003KT 12/M07 A3025 RMK A01 T01171074  RH  026%=      5-min Rain = 0
KPMS 102035Z 26003KT 12/M08 A3025 RMK A01 T01181075  RH  026%=      5-min Rain = 0
KPMS 102040Z 28002KT 12/M08 A3024 RMK A01 T01171078  RH  025%=      5-min Rain = 0
KPMS 102045Z 26003KT 12/M08 A3024 RMK A01 T01171079  RH  025%=      5-min Rain = 0
KPMS 102050Z 29002KT 12/M08 A3024 RMK A01 T01191080  RH  024%=      5-min Rain = 0
KPMS 102055Z 31002KT 12/M08 A3024 RMK A01 T01181080  RH  025%=      5-min Rain = 0
KPMS 102100Z 23003KT 12/M08 A3024 RMK A01 T01191077  RH  025%=      5-min Rain = 0
KPMS 102105Z 20001KT 12/M08 A3024 RMK A01 T01211082  RH  024%=      5-min Rain = 0
KPMS 102110Z 22001KT 12/M08 A3024 RMK A01 T01231080  RH  024%=      5-min Rain = 0
KPMS 102115Z 26002KT 13/M08 A3024 RMK A01 T01261080  RH  023%=      5-min Rain = 0
KPMS 102120Z 28003KT 12/M08 A3024 RMK A01 T01221082  RH  024%=      5-min Rain = 0
KPMS 102125Z 27003KT 12/M08 A3024 RMK A01 T01201082  RH  024%=      5-min Rain = 0
KPMS 102130Z 27002G8KT 12/M08 A3024 RMK A01 T01211080  RH  024%=      5-min Rain = 0
KPMS 102135Z 24004KT 12/M08 A3024 RMK A01 T01201079  RH  024%=      5-min Rain = 0
KPMS 102140Z 24004KT 12/M08 A3024 RMK A01 T01201079  RH  024%=      5-min Rain = 0
KPMS 102145Z 24002KT 12/M08 A3024 RMK A01 T01211079  RH  024%=      5-min Rain = 0
KPMS 102150Z 17002KT 13/M08 A3024 RMK A01 T01251080  RH  023%=      5-min Rain = 0
KPMS 102155Z 10001KT 13/M08 A3024 RMK A01 T01271082  RH  023%=      5-min Rain = 0
KPMS 102200Z 18004KT 13/M08 A3024 RMK A01 T01251082  RH  023%=      5-min Rain = 0
KPMS 102205Z 20005KT 12/M08 A3024 RMK A01 T01231083  RH  023%=      5-min Rain = 0
KPMS 102210Z 18004KT 12/M08 A3024 RMK A01 T01221083  RH  023%=      5-min Rain = 0
KPMS 102215Z 18005KT 12/M08 A3024 RMK A01 T01201081  RH  024%=      5-min Rain = 0
KPMS 102220Z 18005KT 12/M08 A3024 RMK A01 T01201082  RH  024%=      5-min Rain = 0
KPMS 102225Z 21004KT 12/M08 A3024 RMK A01 T01191083  RH  024%=      5-min Rain = 0
KPMS 102230Z 21004KT 12/M08 A3024 RMK A01 T01191081  RH  024%=      5-min Rain = 0
KPMS 102235Z 17004KT 12/M08 A3024 RMK A01 T01181077  RH  025%=      5-min Rain = 0
KPMS 102240Z 19005KT 12/M08 A3024 RMK A01 T01161079  RH  025%=      5-min Rain = 0
KPMS 102245Z 18006KT 11/M08 A3024 RMK A01 T01131079  RH  026%=      5-min Rain = 0
KPMS 102250Z 17005KT 11/M08 A3024 RMK A01 T01111079  RH  026%=      5-min Rain = 0
KPMS 102255Z 16005KT 11/M08 A3024 RMK A01 T01071083  RH  026%=      5-min Rain = 0
KPMS 102300Z 17005KT 10/M08 A3024 RMK A01 T00981084  RH  027%=      5-min Rain = 0
KPMS 102305Z 17005KT 09/M09 A3023 RMK A01 T00891085  RH  029%=      5-min Rain = 0
KPMS 102310Z 17005KT 08/M09 A3023 RMK A01 T00821085  RH  030%=      5-min Rain = 0
KPMS 102315Z 17005KT 08/M08 A3023 RMK A01 T00791084  RH  031%=      5-min Rain = 0
KPMS 102320Z 17004KT 08/M08 A3024 RMK A01 T00791083  RH  031%=      5-min Rain = 0
KPMS 102325Z 17006KT 08/M08 A3024 RMK A01 T00751082  RH  032%=      5-min Rain = 0
KPMS 102330Z 18005KT 07/M08 A3024 RMK A01 T00721083  RH  033%=      5-min Rain = 0
KPMS 102335Z 18005KT 06/M08 A3024 RMK A01 T00641082  RH  035%=      5-min Rain = 0
KPMS 102340Z 17006KT 06/M08 A3024 RMK A01 T00631081  RH  035%=      5-min Rain = 0
KPMS 102345Z 17005KT 06/M08 A3023 RMK A01 T00571081  RH  037%=      5-min Rain = 0
KPMS 102350Z 17005KT 05/M08 A3023 RMK A01 T00501080  RH  039%=      5-min Rain = 0
KPMS 102355Z 17005KT 05/M08 A3024 RMK A01 T00491079  RH  040%=      5-min Rain = 0
KPMS 110000Z 16006KT 04/M08 A3024 RMK A01 T00441080  RH  041%=      5-min Rain = 0
KPMS 110005Z 17007KT 04/M08 A3024 RMK A01 T00371079  RH  043%=      5-min Rain = 0
KPMS 110010Z 16006KT 04/M08 A3023 RMK A01 T00371078  RH  043%=      5-min Rain = 0
KPMS 110015Z 16007KT 03/M08 A3023 RMK A01 T00331078  RH  044%=      5-min Rain = 0
KPMS 110020Z 16006KT 03/M08 A3023 RMK A01 T00261077  RH  047%=      5-min Rain = 0
KPMS 110025Z 16006KT 03/M08 A3023 RMK A01 T00271078  RH  046%=      5-min Rain = 0
KPMS 110030Z 15006KT 03/M08 A3023 RMK A01 T00271078  RH  046%=      5-min Rain = 0
KPMS 110035Z 16006KT 03/M08 A3023 RMK A01 T00251078  RH  047%=      5-min Rain = 0
KPMS 110040Z 13007KT 02/M08 A3023 RMK A01 T00181082  RH  048%=      5-min Rain = 0
KPMS 110045Z 13008KT 01/M08 A3024 RMK A01 T00061078  RH  054%=      5-min Rain = 0
KPMS 110050Z 14010KT 01/M07 A3024 RMK A01 T00121065  RH  057%=      5-min Rain = 0
KPMS 110055Z 16010KT 02/M06 A3024 RMK A01 T00181058  RH  058%=      5-min Rain = 0
KPMS 110100Z 16010KT 03/M05 A3024 RMK A01 T00261053  RH  057%=      5-min Rain = 0
KPMS 110105Z 16010KT 03/M05 A3024 RMK A01 T00261053  RH  056%=      5-min Rain = 0
KPMS 110110Z 16010KT 02/M05 A3023 RMK A01 T00221054  RH  058%=      5-min Rain = 0
KPMS 110115Z 17010KT 02/M05 A3023 RMK A01 T00211052  RH  059%=      5-min Rain = 0
KPMS 110120Z 16010KT 02/M05 A3023 RMK A01 T00221050  RH  060%=      5-min Rain = 0
KPMS 110125Z 16010KT 02/M05 A3023 RMK A01 T00211048  RH  061%=      5-min Rain = 0
KPMS 110130Z 17010KT 02/M05 A3023 RMK A01 T00221047  RH  061%=      5-min Rain = 0
KPMS 110135Z 16009KT 02/M05 A3023 RMK A01 T00191048  RH  062%=      5-min Rain = 0
KPMS 110140Z 16009KT 02/M05 A3023 RMK A01 T00151049  RH  063%=      5-min Rain = 0
KPMS 110145Z 16009KT 01/M05 A3023 RMK A01 T00131049  RH  064%=      5-min Rain = 0
KPMS 110150Z 16009KT 01/M05 A3023 RMK A01 T00121049  RH  065%=      5-min Rain = 0
KPMS 110155Z 17009KT 01/M05 A3023 RMK A01 T00121048  RH  065%=      5-min Rain = 0
KPMS 110200Z 16009KT 01/M05 A3023 RMK A01 T00131047  RH  065%=      5-min Rain = 0
KPMS 110205Z 17010KT 01/M05 A3023 RMK A01 T00121047  RH  065%=      5-min Rain = 0
KPMS 110210Z 17010KT 01/M05 A3023 RMK A01 T00121047  RH  065%=      5-min Rain = 0
KPMS 110215Z 17010KT 01/M05 A3023 RMK A01 T00121047  RH  066%=      5-min Rain = 0
KPMS 110220Z 17010KT 01/M05 A3023 RMK A01 T00141045  RH  066%=      5-min Rain = 0
KPMS 110225Z 17010KT 02/M04 A3023 RMK A01 T00181044  RH  064%=      5-min Rain = 0
KPMS 110230Z 17010KT 02/M04 A3023 RMK A01 T00211043  RH  063%=      5-min Rain = 0
KPMS 110235Z 17010KT 02/M04 A3023 RMK A01 T00201043  RH  063%=      5-min Rain = 0
KPMS 110240Z 17010KT 02/M04 A3023 RMK A01 T00191043  RH  064%=      5-min Rain = 0
KPMS 110245Z 17010KT 02/M04 A3023 RMK A01 T00181044  RH  064%=      5-min Rain = 0
KPMS 110250Z 17010KT 01/M05 A3023 RMK A01 T00141045  RH  066%=      5-min Rain = 0
KPMS 110255Z 17009KT 01/M04 A3023 RMK A01 T00111044  RH  067%=      5-min Rain = 0
KPMS 110300Z 17009KT 01/M04 A3023 RMK A01 T00101043  RH  068%=      5-min Rain = 0
KPMS 110305Z 16010KT 01/M04 A3023 RMK A01 T00081044  RH  069%=      5-min Rain = 0
KPMS 110310Z 16010KT 01/M04 A3023 RMK A01 T00071043  RH  070%=      5-min Rain = 0
KPMS 110315Z 16010KT 01/M04 A3023 RMK A01 T00051043  RH  071%=      5-min Rain = 0
KPMS 110320Z 16010KT 00/M04 A3023 RMK A01 T00021044  RH  072%=      5-min Rain = 0
KPMS 110325Z 16009KT M00/M04 A3023 RMK A01 T10011044  RH  074%=      5-min Rain = 0
KPMS 110330Z 16009KT M00/M04 A3023 RMK A01 T10031043  RH  075%=      5-min Rain = 0
KPMS 110335Z 16009KT M00/M04 A3023 RMK A01 T10041042  RH  076%=      5-min Rain = 0
KPMS 110340Z 16009KT M01/M04 A3023 RMK A01 T10051041  RH  078%=      5-min Rain = 0
KPMS 110345Z 16009KT M01/M04 A3023 RMK A01 T10061041  RH  078%=      5-min Rain = 0
KPMS 110350Z 16009KT M01/M04 A3023 RMK A01 T10081042  RH  079%=      5-min Rain = 0
KPMS 110355Z 17009KT M01/M04 A3023 RMK A01 T10111041  RH  081%=      5-min Rain = 0
KPMS 110400Z 16009KT M01/M04 A3023 RMK A01 T10101041  RH  081%=      5-min Rain = 0
KPMS 110405Z 17008KT M01/M04 A3023 RMK A01 T10131041  RH  082%=      5-min Rain = 0
KPMS 110410Z 17008KT M01/M04 A3023 RMK A01 T10111037  RH  084%=      5-min Rain = 0
KPMS 110415Z 17008KT M01/M04 A3023 RMK A01 T10111037  RH  083%=      5-min Rain = 0
KPMS 110420Z 18007KT M01/M03 A3023 RMK A01 T10051030  RH  084%=      5-min Rain = 0
KPMS 110425Z 18007KT M00/M03 A3023 RMK A01 T10011031  RH  081%=      5-min Rain = 0
KPMS 110430Z 17007KT M01/M04 A3023 RMK A01 T10071037  RH  081%=      5-min Rain = 0
KPMS 110435Z 17008KT M01/M04 A3023 RMK A01 T10131039  RH  083%=      5-min Rain = 0
KPMS 110440Z 17009KT M02/M04 A3023 RMK A01 T10161038  RH  086%=      5-min Rain = 0
KPMS 110445Z 17009KT M02/M04 A3023 RMK A01 T10161036  RH  087%=      5-min Rain = 0
KPMS 110450Z 17010KT M01/M03 A3022 RMK A01 T10111027  RH  089%=      5-min Rain = 0
KPMS 110455Z 17010KT 00/M02 A3022 RMK A01 T00011019  RH  087%=      5-min Rain = 0
KPMS 110500Z 16009KT 00/M02 A3022 RMK A01 T00021022  RH  085%=      5-min Rain = 0
KPMS 110505Z 16008KT M00/M03 A3023 RMK A01 T10021026  RH  085%=      5-min Rain = 0
KPMS 110510Z 17008KT M01/M03 A3023 RMK A01 T10071028  RH  087%=      5-min Rain = 0
KPMS 110515Z 17008KT M01/M03 A3022 RMK A01 T10111029  RH  088%=      5-min Rain = 0
KPMS 110520Z 17008KT M01/M03 A3022 RMK A01 T10121027  RH  090%=      5-min Rain = 0
KPMS 110525Z 17007KT M01/M02 A3022 RMK A01 T10061020  RH  091%=      5-min Rain = 0
KPMS 110530Z 17008KT M00/M02 A3022 RMK A01 T10031020  RH  090%=      5-min Rain = 0
KPMS 110535Z 17008KT M01/M02 A3021 RMK A01 T10051022  RH  089%=      5-min Rain = 0
KPMS 110540Z 17009KT M01/M02 A3021 RMK A01 T10071023  RH  090%=      5-min Rain = 0
KPMS 110545Z 17008KT M01/M02 A3021 RMK A01 T10051020  RH  091%=      5-min Rain = 0
KPMS 110550Z 17008KT M01/M02 A3021 RMK A01 T10061022  RH  090%=      5-min Rain = 0
KPMS 110555Z 17008KT M01/M02 A3021 RMK A01 T10061022  RH  090%=      5-min Rain = 0

Page generated in 0.0088 seconds.